首页
METAR-TAF:

METAR-TAF

机场 :

瓦讷, 法国

纬度: 47-43-19N, 经度: 2-43-41W, 海拔: 130米

当前天气观测

该预报发布于28分钟前的14:00 UTC
风速9节,风向南转西南
温度 11°C
湿度 94%
气压 1013 hPa
能见度10公里或以上

METAR: LFRV 261400Z AUTO 20009KT 9999 OVC009/// ///TCU 11/10 Q1013

时间: 15:28 (14:28 UTC)


TAF: 丢失

超过4000个机场的气象观测和天气预报(METAR&TAF报告)。

可查询的气象台以黄色和红色小点在地图上表示。

将鼠标移到小点上方,可查看气象台名称。

然后点击查看天气观测和预报。

如需切换地图:点击带黑十字的绿色按钮放大地图;点击带横线的绿色按钮缩小地图;或者点击绿色箭头查看邻近地区的地图。


METAR-TAF: